Terminal Aerodrome Forecast
Issued by NWS

Home | Current Version | Previous Version | Text Only | Print | Product List | Glossary On
Versions: 1 2 3 4 5 6 7 8 9 10 11 12 13 14 15 16
000
FTUS43 KDMX 231135 AAA
TAFMCW
TAF AMD
KMCW 231135Z 2312/2406 13007KT 6SM BR VCTS SCT040CB BKN070
      TEMPO 2312/2316 3SM TSRA FEW005 BKN025CB
     FM231700 16013KT P6SM BKN200
     FM240300 19009KT P6SM SCT200=

USA.gov is the U.S. government's official web portal to all federal, state and local government web resources and services.